createdAt,value
2023-04-09T00:00:40.187Z,6.26
2023-04-09T00:01:40.755Z,6.30
2023-04-09T00:02:41.392Z,6.35
2023-04-09T00:03:42.024Z,6.28
2023-04-09T00:04:42.686Z,6.31
2023-04-09T00:05:43.273Z,6.33
2023-04-09T00:06:43.819Z,6.20
2023-04-09T00:07:44.672Z,6.11
2023-04-09T00:08:44.717Z,6.05
2023-04-09T00:09:45.262Z,6.01
2023-04-09T00:10:46.082Z,5.99
2023-04-09T00:11:46.298Z,6.04
2023-04-09T00:12:46.219Z,5.98
2023-04-09T00:13:46.735Z,5.99
2023-04-09T00:14:47.296Z,6.05
2023-04-09T00:15:47.840Z,6.14
2023-04-09T00:16:48.386Z,6.16
2023-04-09T00:17:48.957Z,6.08
2023-04-09T00:18:49.800Z,6.20
2023-04-09T00:19:49.941Z,6.17
2023-04-09T00:20:50.464Z,6.11
2023-04-09T00:21:50.989Z,6.09
2023-04-09T00:22:51.515Z,6.08
2023-04-09T00:23:52.042Z,6.12
2023-04-09T00:24:52.578Z,6.08
2023-04-09T00:25:53.112Z,6.22
2023-04-09T00:26:53.647Z,6.20
2023-04-09T00:27:54.170Z,6.24
2023-04-09T00:28:54.700Z,6.30
2023-04-09T00:29:55.244Z,6.28
2023-04-09T00:30:55.762Z,6.20
2023-04-09T00:31:56.295Z,6.30
2023-04-09T00:32:56.890Z,6.20
2023-04-09T00:33:57.423Z,6.11
2023-04-09T00:34:57.953Z,6.04
2023-04-09T00:35:58.535Z,5.99
2023-04-09T00:36:59.082Z,6.02
2023-04-09T00:37:59.618Z,5.97
2023-04-09T00:39:00.145Z,6.04
2023-04-09T00:40:00.670Z,6.07
2023-04-09T00:41:01.206Z,6.02
2023-04-09T00:42:01.724Z,5.99
2023-04-09T00:43:02.258Z,6.08
2023-04-09T00:44:02.800Z,6.07
2023-04-09T00:45:03.334Z,6.05
2023-04-09T00:46:03.896Z,6.09
2023-04-09T00:47:04.458Z,6.05
2023-04-09T00:48:05.003Z,5.99
2023-04-09T00:49:05.544Z,5.99
2023-04-09T00:50:06.071Z,5.93
2023-04-09T00:51:06.598Z,5.86
2023-04-09T00:52:07.125Z,5.94
2023-04-09T00:53:07.666Z,6.01
2023-04-09T00:54:08.192Z,5.99
2023-04-09T00:55:08.725Z,5.97
2023-04-09T00:56:09.235Z,6.02
2023-04-09T00:57:09.771Z,6.11
2023-04-09T00:58:10.298Z,6.02
2023-04-09T00:59:10.829Z,6.01
2023-04-09T01:00:11.412Z,5.99
2023-04-09T01:01:11.980Z,6.12
2023-04-09T01:02:12.685Z,6.22
2023-04-09T01:03:12.894Z,6.30
2023-04-09T01:04:12.986Z,6.36
2023-04-09T01:05:13.510Z,6.44
2023-04-09T01:06:14.052Z,6.45
2023-04-09T01:07:14.593Z,6.45
2023-04-09T01:08:15.131Z,6.39
2023-04-09T01:09:15.680Z,6.38
2023-04-09T01:10:16.200Z,6.30
2023-04-09T01:11:16.719Z,6.24
2023-04-09T01:12:17.239Z,6.24
2023-04-09T01:13:17.749Z,6.19
2023-04-09T01:14:18.257Z,6.08
2023-04-09T01:15:18.796Z,6.04
2023-04-09T01:16:19.377Z,5.97
2023-04-09T01:17:19.913Z,5.86
2023-04-09T01:18:20.018Z,5.86
2023-04-09T01:19:20.545Z,5.84
2023-04-09T01:20:21.076Z,5.86
2023-04-09T01:21:21.612Z,5.84
2023-04-09T01:22:22.173Z,5.84
2023-04-09T01:23:22.716Z,5.82
2023-04-09T01:24:23.247Z,5.94
2023-04-09T01:25:23.767Z,5.98
2023-04-09T01:26:24.322Z,6.09
2023-04-09T01:27:24.853Z,6.17
2023-04-09T01:28:25.398Z,6.27
2023-04-09T01:29:25.927Z,6.22
2023-04-09T01:30:26.467Z,6.20
2023-04-09T01:31:27.009Z,6.11
2023-04-09T01:32:27.584Z,6.08
2023-04-09T01:33:28.120Z,6.09
2023-04-09T01:34:28.654Z,6.14
2023-04-09T01:35:29.180Z,6.31
2023-04-09T01:36:29.719Z,6.31
2023-04-09T01:37:30.235Z,6.31
2023-04-09T01:38:30.765Z,6.19
2023-04-09T01:39:31.308Z,6.02
2023-04-09T01:40:31.854Z,6.11
2023-04-09T01:41:32.378Z,6.07
2023-04-09T01:42:32.913Z,5.99
2023-04-09T01:43:33.486Z,6.01
2023-04-09T01:44:34.027Z,5.99
2023-04-09T01:45:34.568Z,5.93
2023-04-09T01:46:35.161Z,5.93
2023-04-09T01:47:35.758Z,5.91
2023-04-09T01:48:36.342Z,5.75
2023-04-09T01:49:36.868Z,5.64
2023-04-09T01:50:37.442Z,5.76
2023-04-09T01:51:37.975Z,5.84
2023-04-09T01:52:38.506Z,6.02
2023-04-09T01:53:39.030Z,6.14
2023-04-09T01:54:39.553Z,6.26
2023-04-09T01:55:40.066Z,6.26
2023-04-09T01:56:40.616Z,6.44
2023-04-09T01:57:41.233Z,6.45
2023-04-09T01:58:41.747Z,6.42
2023-04-09T01:59:42.298Z,6.45
2023-04-09T02:00:42.829Z,6.49
2023-04-09T02:01:43.406Z,6.54
2023-04-09T02:02:44.039Z,6.51
2023-04-09T02:03:44.732Z,6.51
2023-04-09T02:04:44.718Z,6.49
2023-04-09T02:05:45.261Z,6.41
2023-04-09T02:06:45.798Z,6.36
2023-04-09T02:07:46.338Z,6.39
2023-04-09T02:08:46.876Z,6.27
2023-04-09T02:09:47.428Z,6.30
2023-04-09T02:10:47.978Z,6.27
2023-04-09T02:11:48.511Z,6.22
2023-04-09T02:12:49.025Z,6.05
2023-04-09T02:13:49.556Z,6.01
2023-04-09T02:14:50.084Z,5.87
2023-04-09T02:15:50.650Z,5.75
2023-04-09T02:16:51.230Z,5.71
2023-04-09T02:17:51.841Z,5.73
2023-04-09T02:18:52.494Z,5.57
2023-04-09T02:19:52.557Z,5.57
2023-04-09T02:20:53.094Z,5.53
2023-04-09T02:21:53.628Z,5.61
2023-04-09T02:22:54.158Z,5.72
2023-04-09T02:23:54.703Z,5.97
2023-04-09T02:24:55.232Z,6.05
2023-04-09T02:25:55.759Z,6.22
2023-04-09T02:26:56.289Z,6.17
2023-04-09T02:27:56.824Z,6.16
2023-04-09T02:28:57.352Z,6.19
2023-04-09T02:29:57.886Z,6.26
2023-04-09T02:30:58.456Z,6.28
2023-04-09T02:31:59.009Z,6.27
2023-04-09T02:32:59.573Z,6.27
2023-04-09T02:34:00.120Z,6.27
2023-04-09T02:35:00.637Z,6.20
2023-04-09T02:36:01.233Z,6.09
2023-04-09T02:37:01.796Z,5.98
2023-04-09T02:38:02.324Z,5.90
2023-04-09T02:39:02.879Z,5.84
2023-04-09T02:40:03.404Z,5.82
2023-04-09T02:41:03.911Z,5.80
2023-04-09T02:42:04.437Z,5.82
2023-04-09T02:43:04.955Z,5.82
2023-04-09T02:44:05.464Z,5.83
2023-04-09T02:45:06.009Z,5.82
2023-04-09T02:46:06.568Z,5.76
2023-04-09T02:47:07.101Z,5.68
2023-04-09T02:48:07.628Z,5.71
2023-04-09T02:49:08.160Z,5.66
2023-04-09T02:50:08.674Z,5.68
2023-04-09T02:51:09.218Z,5.73
2023-04-09T02:52:09.761Z,5.83
2023-04-09T02:53:10.295Z,5.72
2023-04-09T02:54:10.860Z,5.68
2023-04-09T02:55:11.390Z,5.69
2023-04-09T02:56:11.917Z,5.68
2023-04-09T02:57:12.459Z,5.64
2023-04-09T02:58:12.993Z,5.65
2023-04-09T02:59:13.535Z,5.57
2023-04-09T03:00:14.067Z,5.57
2023-04-09T03:01:14.628Z,5.57
2023-04-09T03:02:15.248Z,5.54
2023-04-09T03:03:15.943Z,5.66
2023-04-09T03:04:16.010Z,5.64
2023-04-09T03:05:16.563Z,5.50
2023-04-09T03:06:17.093Z,5.48
2023-04-09T03:07:17.632Z,5.43
2023-04-09T03:08:18.189Z,5.48
2023-04-09T03:09:18.713Z,5.56
2023-04-09T03:10:19.250Z,5.62
2023-04-09T03:11:19.790Z,5.66
2023-04-09T03:12:20.323Z,5.76
2023-04-09T03:13:20.862Z,5.73
2023-04-09T03:14:21.408Z,5.75
2023-04-09T03:15:21.973Z,5.84
2023-04-09T03:16:22.565Z,5.89
2023-04-09T03:17:23.130Z,5.97
2023-04-09T03:18:23.648Z,6.04
2023-04-09T03:19:24.172Z,6.04
2023-04-09T03:20:24.702Z,5.99
2023-04-09T03:21:25.220Z,5.87
2023-04-09T03:22:25.737Z,5.86
2023-04-09T03:23:26.276Z,5.71
2023-04-09T03:24:26.806Z,5.69
2023-04-09T03:25:27.357Z,5.68
2023-04-09T03:26:27.890Z,5.69
2023-04-09T03:27:28.416Z,5.83
2023-04-09T03:28:28.937Z,5.90
2023-04-09T03:29:29.454Z,5.91
2023-04-09T03:30:29.999Z,6.04
2023-04-09T03:31:30.568Z,6.07
2023-04-09T03:32:31.148Z,6.02
2023-04-09T03:33:31.701Z,5.91
2023-04-09T03:34:32.239Z,5.83
2023-04-09T03:35:32.817Z,5.72
2023-04-09T03:36:33.385Z,5.68
2023-04-09T03:37:33.900Z,5.62
2023-04-09T03:38:34.407Z,5.68
2023-04-09T03:39:34.942Z,5.66
2023-04-09T03:40:35.468Z,5.65
2023-04-09T03:41:35.980Z,5.64
2023-04-09T03:42:36.519Z,5.62
2023-04-09T03:43:37.066Z,5.68
2023-04-09T03:44:37.596Z,5.68
2023-04-09T03:45:38.142Z,5.57
2023-04-09T03:46:38.724Z,5.68
2023-04-09T03:47:38.749Z,5.66
2023-04-09T03:48:39.276Z,5.68
2023-04-09T03:49:39.808Z,5.65
2023-04-09T03:50:40.345Z,5.61
2023-04-09T03:51:40.866Z,5.59
2023-04-09T03:52:41.386Z,5.53
2023-04-09T03:53:41.904Z,5.48
2023-04-09T03:54:42.457Z,5.46
2023-04-09T03:55:43.007Z,5.50
2023-04-09T03:56:43.554Z,5.47
2023-04-09T03:57:44.105Z,5.47
2023-04-09T03:58:44.648Z,5.71
2023-04-09T03:59:45.170Z,5.73
2023-04-09T04:00:45.700Z,5.79
2023-04-09T04:01:46.340Z,5.80
2023-04-09T04:02:46.468Z,5.82
2023-04-09T04:03:46.621Z,5.87
2023-04-09T04:04:46.809Z,5.87
2023-04-09T04:05:46.792Z,5.91
2023-04-09T04:06:47.313Z,5.80
2023-04-09T04:07:47.858Z,5.83
2023-04-09T04:08:48.434Z,5.94
2023-04-09T04:09:48.958Z,5.93
2023-04-09T04:10:49.484Z,5.91
2023-04-09T04:11:50.009Z,5.94
2023-04-09T04:12:50.555Z,5.97
2023-04-09T04:13:51.097Z,5.89
2023-04-09T04:14:51.635Z,5.76
2023-04-09T04:15:52.171Z,5.71
2023-04-09T04:16:52.827Z,5.79
2023-04-09T04:17:53.414Z,5.83
2023-04-09T04:18:54.206Z,5.94
2023-04-09T04:19:54.380Z,5.80
2023-04-09T04:20:54.959Z,5.75
2023-04-09T04:21:55.481Z,5.83
2023-04-09T04:22:56.004Z,5.80
2023-04-09T04:23:56.530Z,5.82
2023-04-09T04:24:57.089Z,5.79
2023-04-09T04:25:57.643Z,5.79
2023-04-09T04:26:58.169Z,5.73
2023-04-09T04:27:58.693Z,5.59
2023-04-09T04:28:59.231Z,5.57
2023-04-09T04:29:59.777Z,5.65
2023-04-09T04:31:00.309Z,5.73
2023-04-09T04:32:00.888Z,5.86
2023-04-09T04:33:01.479Z,5.91
2023-04-09T04:34:02.031Z,6.01
2023-04-09T04:35:02.563Z,5.90
2023-04-09T04:36:03.172Z,5.83
2023-04-09T04:37:03.704Z,5.87
2023-04-09T04:38:04.243Z,5.89
2023-04-09T04:39:04.777Z,5.83
2023-04-09T04:40:05.313Z,5.80
2023-04-09T04:41:05.833Z,5.75
2023-04-09T04:42:06.388Z,5.94
2023-04-09T04:43:06.945Z,6.01
2023-04-09T04:44:07.485Z,6.05
2023-04-09T04:45:08.034Z,6.08
2023-04-09T04:46:08.606Z,6.09
2023-04-09T04:47:09.157Z,6.05
2023-04-09T04:48:09.696Z,5.99
2023-04-09T04:49:10.241Z,6.02
2023-04-09T04:50:10.783Z,6.12
2023-04-09T04:51:11.344Z,6.05
2023-04-09T04:52:11.894Z,6.14
2023-04-09T04:53:12.445Z,6.19
2023-04-09T04:54:12.974Z,6.11
2023-04-09T04:55:13.530Z,6.09
2023-04-09T04:56:14.100Z,6.04
2023-04-09T04:57:14.652Z,6.11
2023-04-09T04:58:15.189Z,6.17
2023-04-09T04:59:15.731Z,6.11
2023-04-09T05:00:16.273Z,5.99
2023-04-09T05:01:16.871Z,5.87
2023-04-09T05:02:17.505Z,5.64
2023-04-09T05:03:17.658Z,5.71
2023-04-09T05:04:18.297Z,5.69
2023-04-09T05:05:18.843Z,5.64
2023-04-09T05:06:19.412Z,5.68
2023-04-09T05:07:19.972Z,5.64
2023-04-09T05:08:20.535Z,5.54
2023-04-09T05:09:22.425Z,5.56
2023-04-09T05:10:21.321Z,5.48
2023-04-09T05:11:21.871Z,5.47
2023-04-09T05:12:22.408Z,5.36
2023-04-09T05:13:22.945Z,5.26
2023-04-09T05:14:23.500Z,5.07
2023-04-09T05:15:24.048Z,5.04
2023-04-09T05:16:24.726Z,5.10
2023-04-09T05:17:25.285Z,5.14
2023-04-09T05:18:25.865Z,5.18
2023-04-09T05:19:26.417Z,5.39
2023-04-09T05:20:26.964Z,5.33
2023-04-09T05:21:27.520Z,5.21
2023-04-09T05:22:28.120Z,5.18
2023-04-09T05:23:28.661Z,5.30
2023-04-09T05:24:29.190Z,5.32
2023-04-09T05:25:29.750Z,5.32
2023-04-09T05:26:30.301Z,5.30
2023-04-09T05:27:30.846Z,5.36
2023-04-09T05:28:31.392Z,5.35
2023-04-09T05:29:31.949Z,5.33
2023-04-09T05:30:32.507Z,5.29
2023-04-09T05:31:33.060Z,5.33
2023-04-09T05:32:33.660Z,5.38
2023-04-09T05:33:34.243Z,5.30
2023-04-09T05:34:34.790Z,5.30
2023-04-09T05:35:35.364Z,5.35
2023-04-09T05:36:35.927Z,5.41
2023-04-09T05:37:36.475Z,5.39
2023-04-09T05:38:37.021Z,5.43
2023-04-09T05:39:37.559Z,5.46
2023-04-09T05:40:38.101Z,5.51
2023-04-09T05:41:38.803Z,5.57
2023-04-09T05:42:38.828Z,5.57
2023-04-09T05:43:39.384Z,5.57
2023-04-09T05:44:39.915Z,5.53
2023-04-09T05:45:40.497Z,5.47
2023-04-09T05:46:41.049Z,5.48
2023-04-09T05:47:41.665Z,5.43
2023-04-09T05:48:42.244Z,5.43
2023-04-09T05:49:42.813Z,5.50
2023-04-09T05:50:54.028Z,5.50
2023-04-09T05:51:43.577Z,5.51
2023-04-09T05:52:44.118Z,5.56
2023-04-09T05:53:44.698Z,5.56
2023-04-09T05:54:45.249Z,5.48
2023-04-09T05:55:45.803Z,5.51
2023-04-09T05:56:46.366Z,5.41
2023-04-09T05:57:46.917Z,5.33
2023-04-09T05:58:47.472Z,5.29
2023-04-09T05:59:48.022Z,5.21
2023-04-09T06:00:48.578Z,5.32
2023-04-09T06:01:49.174Z,5.35
2023-04-09T06:02:49.835Z,5.33
2023-04-09T06:03:50.136Z,5.47
2023-04-09T06:04:50.335Z,5.56
2023-04-09T06:05:50.908Z,5.64
2023-04-09T06:06:51.473Z,5.68
2023-04-09T06:07:52.025Z,5.75
2023-04-09T06:08:52.583Z,5.71
2023-04-09T06:09:53.143Z,5.83
2023-04-09T06:10:53.727Z,5.89
2023-04-09T06:11:54.308Z,5.91
2023-04-09T06:12:54.869Z,5.94
2023-04-09T06:13:55.424Z,6.02
2023-04-09T06:14:55.983Z,6.07
2023-04-09T06:15:56.564Z,6.07
2023-04-09T06:16:57.150Z,6.19
2023-04-09T06:17:59.492Z,6.26
2023-04-09T06:18:58.359Z,6.26
2023-04-09T06:19:58.931Z,6.26
2023-04-09T06:20:59.481Z,6.31
2023-04-09T06:22:00.049Z,6.31
2023-04-09T06:23:00.631Z,6.38
2023-04-09T06:24:01.190Z,6.41
2023-04-09T06:25:01.738Z,6.46
2023-04-09T06:26:02.293Z,6.49
2023-04-09T06:27:02.846Z,6.54
2023-04-09T06:28:03.395Z,6.54
2023-04-09T06:29:03.969Z,6.63
2023-04-09T06:30:04.543Z,6.67
2023-04-09T06:31:05.121Z,6.72
2023-04-09T06:32:05.698Z,6.69
2023-04-09T06:33:06.299Z,6.72
2023-04-09T06:34:06.890Z,6.84
2023-04-09T06:35:09.703Z,6.81
2023-04-09T06:36:07.919Z,6.82
2023-04-09T06:37:08.497Z,6.85
2023-04-09T06:38:09.048Z,6.89
2023-04-09T06:39:09.611Z,6.93
2023-04-09T06:40:10.174Z,7.00
2023-04-09T06:41:10.753Z,7.03
2023-04-09T06:42:11.344Z,6.99
2023-04-09T06:43:11.913Z,7.03
2023-04-09T06:44:12.474Z,7.10
2023-04-09T06:45:13.036Z,7.23
2023-04-09T06:46:13.637Z,7.25
2023-04-09T06:47:14.209Z,7.25
2023-04-09T06:48:14.756Z,7.21
2023-04-09T06:49:15.309Z,7.24
2023-04-09T06:50:15.865Z,7.29
2023-04-09T06:51:16.423Z,7.33
2023-04-09T06:52:16.980Z,7.39
2023-04-09T06:53:17.577Z,7.43
2023-04-09T06:54:18.207Z,7.45
2023-04-09T06:55:18.767Z,7.51
2023-04-09T06:56:19.329Z,7.53
2023-04-09T06:57:19.915Z,7.53
2023-04-09T06:58:20.476Z,7.57
2023-04-09T06:59:21.022Z,7.60
2023-04-09T07:00:21.597Z,7.63
2023-04-09T07:01:22.199Z,7.69
2023-04-09T07:02:22.939Z,7.70
2023-04-09T07:03:23.053Z,7.72
2023-04-09T07:04:23.165Z,7.76
2023-04-09T07:05:23.263Z,7.90
2023-04-09T07:06:23.813Z,7.91
2023-04-09T07:07:25.877Z,7.91
2023-04-09T07:08:24.739Z,7.93
2023-04-09T07:09:25.292Z,7.90
2023-04-09T07:10:25.858Z,8.03
2023-04-09T07:11:26.422Z,8.18
2023-04-09T07:12:26.973Z,8.26
2023-04-09T07:14:26.627Z,8.24
2023-04-09T07:15:28.395Z,8.26
2023-04-09T07:16:29.068Z,8.19
2023-04-09T07:17:29.086Z,8.23
2023-04-09T07:18:29.663Z,8.24
2023-04-09T07:19:30.228Z,8.30
2023-04-09T07:20:30.783Z,8.36
2023-04-09T07:21:31.533Z,8.38
2023-04-09T07:22:31.519Z,8.42
2023-04-09T07:23:32.115Z,8.45
2023-04-09T07:24:32.662Z,8.44
2023-04-09T07:25:33.228Z,8.45
2023-04-09T07:26:33.789Z,8.48
2023-04-09T07:27:34.332Z,8.42
2023-04-09T07:28:34.895Z,8.38
2023-04-09T07:29:35.453Z,8.38
2023-04-09T07:30:35.997Z,8.46
2023-04-09T07:31:36.564Z,8.49
2023-04-09T07:32:37.175Z,8.48
2023-04-09T07:33:37.763Z,8.45
2023-04-09T07:34:38.319Z,8.46
2023-04-09T07:35:38.927Z,8.42
2023-04-09T07:36:39.510Z,8.49
2023-04-09T07:37:40.112Z,8.52
2023-04-09T07:38:40.679Z,8.60
2023-04-09T07:39:41.251Z,8.60
2023-04-09T07:40:41.814Z,8.56
2023-04-09T07:41:42.382Z,8.55
2023-04-09T07:42:42.940Z,8.56
2023-04-09T07:43:43.486Z,8.61
2023-04-09T07:44:44.080Z,8.61
2023-04-09T07:45:44.642Z,8.61
2023-04-09T07:46:45.293Z,8.61
2023-04-09T07:47:45.392Z,8.61
2023-04-09T07:48:46.692Z,8.61
2023-04-09T07:49:45.505Z,8.56
2023-04-09T07:50:46.065Z,8.56
2023-04-09T07:51:46.618Z,8.70
2023-04-09T07:52:47.177Z,8.78
2023-04-09T07:53:47.768Z,8.78
2023-04-09T07:54:48.352Z,8.79
2023-04-09T07:55:48.914Z,8.88
2023-04-09T07:56:49.471Z,9.00
2023-04-09T07:57:50.012Z,9.10
2023-04-09T07:58:50.782Z,9.19
2023-04-09T07:59:50.925Z,9.18
2023-04-09T08:00:51.499Z,9.19
2023-04-09T08:01:52.120Z,9.29
2023-04-09T08:02:53.124Z,9.26
2023-04-09T08:03:53.393Z,9.26
2023-04-09T08:04:53.594Z,9.26
2023-04-09T08:05:53.608Z,9.22
2023-04-09T08:06:54.189Z,9.13
2023-04-09T08:07:54.787Z,9.10
2023-04-09T08:08:55.361Z,9.19
2023-04-09T08:09:55.913Z,9.36
2023-04-09T08:10:56.467Z,9.37
2023-04-09T08:11:57.023Z,9.28
2023-04-09T08:12:57.615Z,9.25
2023-04-09T08:13:58.180Z,9.25
2023-04-09T08:14:58.753Z,9.26
2023-04-09T08:15:59.368Z,9.36
2023-04-09T08:16:59.954Z,9.48
2023-04-09T08:18:00.569Z,9.47
2023-04-09T08:19:01.174Z,9.46
2023-04-09T08:20:01.755Z,9.44
2023-04-09T08:21:02.343Z,9.40
2023-04-09T08:22:02.909Z,9.37
2023-04-09T08:23:03.489Z,9.50
2023-04-09T08:24:04.040Z,9.50
2023-04-09T08:25:04.624Z,9.65
2023-04-09T08:26:05.202Z,9.66
2023-04-09T08:27:05.776Z,9.68
2023-04-09T08:28:06.332Z,9.77
2023-04-09T08:29:06.905Z,9.83
2023-04-09T08:30:07.476Z,9.92
2023-04-09T08:31:08.069Z,10.01
2023-04-09T08:32:08.780Z,10.05
2023-04-09T08:33:08.867Z,9.94
2023-04-09T08:34:09.434Z,9.68
2023-04-09T08:35:09.984Z,9.73
2023-04-09T08:36:10.582Z,9.79
2023-04-09T08:37:11.156Z,9.87
2023-04-09T08:38:11.721Z,9.86
2023-04-09T08:39:12.291Z,9.94
2023-04-09T08:40:12.860Z,9.82
2023-04-09T08:41:14.123Z,9.77
2023-04-09T08:42:13.562Z,9.69
2023-04-09T08:43:14.125Z,9.74
2023-04-09T08:44:14.679Z,9.79
2023-04-09T08:45:15.234Z,9.92
2023-04-09T08:46:15.988Z,10.07
2023-04-09T08:47:16.038Z,10.19
2023-04-09T08:48:16.707Z,10.31
2023-04-09T08:49:16.740Z,10.31
2023-04-09T08:50:17.345Z,10.19
2023-04-09T08:51:17.949Z,10.20
2023-04-09T08:52:18.570Z,10.10
2023-04-09T08:53:19.187Z,10.10
2023-04-09T08:54:19.803Z,10.02
2023-04-09T08:55:19.897Z,10.05
2023-04-09T08:56:20.556Z,10.05
2023-04-09T08:57:21.150Z,10.04
2023-04-09T08:58:21.753Z,10.23
2023-04-09T08:59:22.372Z,10.28
2023-04-09T09:00:22.968Z,10.37
2023-04-09T09:01:23.633Z,10.57
2023-04-09T09:02:23.809Z,10.64
2023-04-09T09:03:23.982Z,10.74
2023-04-09T09:04:24.139Z,10.79
2023-04-09T09:05:24.386Z,10.99
2023-04-09T09:06:24.455Z,10.84
2023-04-09T09:07:25.070Z,10.54
2023-04-09T09:08:25.684Z,10.26
2023-04-09T09:09:26.301Z,10.09
2023-04-09T09:10:26.912Z,10.01
2023-04-09T09:11:27.471Z,9.94
2023-04-09T09:12:28.073Z,9.80
2023-04-09T09:13:28.678Z,9.87
2023-04-09T09:14:29.239Z,9.82
2023-04-09T09:15:29.814Z,9.80
2023-04-09T09:16:30.462Z,9.84
2023-04-09T09:17:31.143Z,10.05
2023-04-09T09:18:31.167Z,10.05
2023-04-09T09:19:31.740Z,9.77
2023-04-09T09:20:32.311Z,9.58
2023-04-09T09:21:32.876Z,9.61
2023-04-09T09:22:33.428Z,9.64
2023-04-09T09:23:33.994Z,9.62
2023-04-09T09:24:34.686Z,9.74
2023-04-09T09:25:34.673Z,9.76
2023-04-09T09:26:35.240Z,9.68
2023-04-09T09:27:35.803Z,9.89
2023-04-09T09:28:36.379Z,9.87
2023-04-09T09:29:36.932Z,9.76
2023-04-09T09:30:37.533Z,9.73
2023-04-09T09:31:38.097Z,9.69
2023-04-09T09:32:38.677Z,9.79
2023-04-09T09:33:39.279Z,9.95
2023-04-09T09:34:39.878Z,10.05
2023-04-09T09:35:40.579Z,10.05
2023-04-09T09:36:40.607Z,9.84
2023-04-09T09:37:41.187Z,9.94
2023-04-09T09:38:41.790Z,10.07
2023-04-09T09:39:42.390Z,10.20
2023-04-09T09:40:42.997Z,10.38
2023-04-09T09:41:43.606Z,10.44
2023-04-09T09:42:44.192Z,10.44
2023-04-09T09:43:44.319Z,10.54
2023-04-09T09:44:44.860Z,10.63
2023-04-09T09:45:45.483Z,10.87
2023-04-09T09:46:46.046Z,10.96
2023-04-09T09:47:46.706Z,10.97
2023-04-09T09:48:46.683Z,11.02
2023-04-09T09:49:47.281Z,10.76
2023-04-09T09:50:47.878Z,10.71
2023-04-09T09:51:48.464Z,10.63
2023-04-09T09:52:49.042Z,10.61
2023-04-09T09:53:49.923Z,10.90
2023-04-09T09:54:49.975Z,11.23
2023-04-09T09:55:50.572Z,11.54
2023-04-09T09:56:51.200Z,11.69
2023-04-09T09:57:51.875Z,11.86
2023-04-09T09:58:52.151Z,12.17
2023-04-09T09:59:52.275Z,12.07
2023-04-09T10:00:52.866Z,12.10
2023-04-09T10:01:53.581Z,12.32
2023-04-09T10:02:53.922Z,12.40
2023-04-09T10:03:54.007Z,12.54
2023-04-09T10:04:54.777Z,12.55
2023-04-09T10:05:54.900Z,12.70
2023-04-09T10:06:55.431Z,12.76
2023-04-09T10:07:55.963Z,12.65
2023-04-09T10:08:56.527Z,12.27
2023-04-09T10:09:57.088Z,11.70
2023-04-09T10:10:57.672Z,11.35
2023-04-09T10:11:58.244Z,11.51
2023-04-09T10:12:58.819Z,11.48
2023-04-09T10:13:59.404Z,11.68
2023-04-09T10:14:59.923Z,12.06
2023-04-09T10:16:00.485Z,12.35
2023-04-09T10:17:01.061Z,12.37
2023-04-09T10:18:01.656Z,12.40
2023-04-09T10:19:02.209Z,12.13
2023-04-09T10:20:02.763Z,11.86
2023-04-09T10:21:03.295Z,12.00
2023-04-09T10:22:03.807Z,12.09
2023-04-09T10:23:04.336Z,12.35
2023-04-09T10:24:04.846Z,12.54
2023-04-09T10:25:05.374Z,12.45
2023-04-09T10:26:05.884Z,12.58
2023-04-09T10:27:06.425Z,12.47
2023-04-09T10:28:06.948Z,12.35
2023-04-09T10:29:07.458Z,12.36
2023-04-09T10:30:07.970Z,12.46
2023-04-09T10:31:08.495Z,12.64
2023-04-09T10:32:09.080Z,12.93
2023-04-09T10:33:09.601Z,13.01
2023-04-09T10:34:10.993Z,12.95
2023-04-09T10:35:10.408Z,13.04
2023-04-09T10:36:10.964Z,13.25
2023-04-09T10:37:11.507Z,13.27
2023-04-09T10:38:12.034Z,13.37
2023-04-09T10:39:12.564Z,13.30
2023-04-09T10:40:13.163Z,13.50
2023-04-09T10:41:13.716Z,13.67
2023-04-09T10:42:14.239Z,13.70
2023-04-09T10:43:14.778Z,13.83
2023-04-09T10:44:15.295Z,13.89
2023-04-09T10:45:15.811Z,13.96
2023-04-09T10:46:16.419Z,13.89
2023-04-09T10:47:16.969Z,14.08
2023-04-09T10:48:17.492Z,14.36
2023-04-09T10:49:18.036Z,14.10
2023-04-09T10:50:18.563Z,13.92
2023-04-09T10:51:19.106Z,13.93
2023-04-09T10:52:19.643Z,14.04
2023-04-09T10:53:20.184Z,14.15
2023-04-09T10:54:20.708Z,13.85
2023-04-09T10:55:21.236Z,13.65
2023-04-09T10:56:21.754Z,13.44
2023-04-09T10:57:22.263Z,13.37
2023-04-09T10:58:22.782Z,13.59
2023-04-09T10:59:23.300Z,13.81
2023-04-09T11:00:23.843Z,13.96
2023-04-09T11:01:24.399Z,14.07
2023-04-09T11:02:25.104Z,13.96
2023-04-09T11:03:25.243Z,13.70
2023-04-09T11:04:25.276Z,13.77
2023-04-09T11:05:25.810Z,13.35
2023-04-09T11:06:26.329Z,12.85
2023-04-09T11:07:26.845Z,12.91
2023-04-09T11:08:27.348Z,12.90
2023-04-09T11:09:27.889Z,12.91
2023-04-09T11:10:28.442Z,13.11
2023-04-09T11:11:28.975Z,13.44
2023-04-09T11:12:29.491Z,13.59
2023-04-09T11:13:30.024Z,13.75
2023-04-09T11:14:30.567Z,13.68
2023-04-09T11:15:31.099Z,13.54
2023-04-09T11:16:31.648Z,13.35
2023-04-09T11:17:32.218Z,12.93
2023-04-09T11:18:32.782Z,12.58
2023-04-09T11:19:33.289Z,12.49
2023-04-09T11:20:33.830Z,12.95
2023-04-09T11:21:35.757Z,13.37
2023-04-09T11:22:34.619Z,13.77
2023-04-09T11:23:35.143Z,13.62
2023-04-09T11:24:35.679Z,13.68
2023-04-09T11:25:36.209Z,13.96
2023-04-09T11:26:36.754Z,13.78
2023-04-09T11:27:37.302Z,13.89
2023-04-09T11:28:37.840Z,14.26
2023-04-09T11:29:38.437Z,14.33
2023-04-09T11:30:38.957Z,14.40
2023-04-09T11:31:39.515Z,14.36
2023-04-09T11:32:40.179Z,14.29
2023-04-09T11:33:40.739Z,14.12
2023-04-09T11:34:41.273Z,13.99
2023-04-09T11:35:41.814Z,13.74
2023-04-09T11:36:42.339Z,13.72
2023-04-09T11:37:42.849Z,13.79
2023-04-09T11:38:43.357Z,13.85
2023-04-09T11:39:43.893Z,13.93
2023-04-09T11:40:44.442Z,13.89
2023-04-09T11:41:44.958Z,13.95
2023-04-09T11:42:45.576Z,13.87
2023-04-09T11:43:46.114Z,13.89
2023-04-09T11:44:47.625Z,13.87
2023-04-09T11:45:46.973Z,13.87
2023-04-09T11:46:47.524Z,13.92
2023-04-09T11:47:48.134Z,14.08
2023-04-09T11:48:48.669Z,13.86
2023-04-09T11:49:49.194Z,13.70
2023-04-09T11:50:49.743Z,13.77
2023-04-09T11:51:50.277Z,13.72
2023-04-09T11:52:50.786Z,13.53
2023-04-09T11:53:51.308Z,13.68
2023-04-09T11:54:51.845Z,14.04
2023-04-09T11:55:52.508Z,14.12
2023-04-09T11:56:52.479Z,14.35
2023-04-09T11:57:52.995Z,14.37
2023-04-09T11:58:53.710Z,14.29
2023-04-09T11:59:53.818Z,14.28
2023-04-09T12:00:54.337Z,14.29
2023-04-09T12:01:54.929Z,14.26
2023-04-09T12:02:55.636Z,14.11
2023-04-09T12:03:55.791Z,14.05
2023-04-09T12:04:56.038Z,14.30
2023-04-09T12:05:56.107Z,14.44
2023-04-09T12:06:56.638Z,14.41
2023-04-09T12:07:57.170Z,14.40
2023-04-09T12:08:57.702Z,14.43
2023-04-09T12:09:58.265Z,14.54
2023-04-09T12:10:58.810Z,14.65
2023-04-09T12:11:59.326Z,14.77
2023-04-09T12:12:59.854Z,14.68
2023-04-09T12:14:00.375Z,14.60
2023-04-09T12:15:00.938Z,14.65
2023-04-09T12:16:01.606Z,14.70
2023-04-09T12:17:02.169Z,14.88
2023-04-09T12:18:02.764Z,14.88
2023-04-09T12:19:03.356Z,14.82
2023-04-09T12:20:03.888Z,14.50
2023-04-09T12:21:04.400Z,14.37
2023-04-09T12:22:04.895Z,14.32
2023-04-09T12:23:05.422Z,14.36
2023-04-09T12:24:05.960Z,14.30
2023-04-09T12:25:06.502Z,14.29
2023-04-09T12:26:07.029Z,14.59
2023-04-09T12:27:07.572Z,14.88
2023-04-09T12:28:08.103Z,14.77
2023-04-09T12:29:08.614Z,14.40
2023-04-09T12:30:09.130Z,14.28
2023-04-09T12:31:09.671Z,14.08
2023-04-09T12:32:10.254Z,14.20
2023-04-09T12:33:11.323Z,14.40
2023-04-09T12:34:10.956Z,14.53
2023-04-09T12:35:11.505Z,14.81
2023-04-09T12:36:12.112Z,14.94
2023-04-09T12:37:12.725Z,14.92
2023-04-09T12:38:13.248Z,14.58
2023-04-09T12:39:13.777Z,14.35
2023-04-09T12:40:14.315Z,14.26
2023-04-09T12:41:14.826Z,14.32
2023-04-09T12:42:15.386Z,14.36
2023-04-09T12:43:15.912Z,14.50
2023-04-09T12:44:16.449Z,14.86
2023-04-09T12:45:16.982Z,14.91
2023-04-09T12:46:17.546Z,14.72
2023-04-09T12:47:18.103Z,14.66
2023-04-09T12:48:18.616Z,14.59
2023-04-09T12:49:19.136Z,14.47
2023-04-09T12:50:19.759Z,14.48
2023-04-09T12:51:20.274Z,14.28
2023-04-09T12:52:20.774Z,14.44
2023-04-09T12:53:21.289Z,14.33
2023-04-09T12:54:21.806Z,14.48
2023-04-09T12:55:22.314Z,14.45
2023-04-09T12:56:22.847Z,14.58
2023-04-09T12:57:23.370Z,14.44
2023-04-09T12:58:23.893Z,14.41
2023-04-09T12:59:24.415Z,14.40
2023-04-09T13:00:24.963Z,14.50
2023-04-09T13:01:25.525Z,14.41
2023-04-09T13:02:26.198Z,14.26
2023-04-09T13:03:26.459Z,14.32
2023-04-09T13:04:26.570Z,14.25
2023-04-09T13:05:26.538Z,14.28
2023-04-09T13:06:27.051Z,14.30
2023-04-09T13:07:27.553Z,14.40
2023-04-09T13:08:28.069Z,14.30
2023-04-09T13:09:28.584Z,14.18
2023-04-09T13:10:29.105Z,14.03
2023-04-09T13:11:29.649Z,14.04
2023-04-09T13:12:30.177Z,14.18
2023-04-09T13:13:30.680Z,14.32
2023-04-09T13:14:31.168Z,14.26
2023-04-09T13:15:31.692Z,14.17
2023-04-09T13:16:32.278Z,14.17
2023-04-09T13:17:32.848Z,14.20
2023-04-09T13:18:33.436Z,14.23